createdAt,value
2022-09-28T00:00:17.363Z,3.83
2022-09-28T00:02:45.149Z,3.70
2022-09-28T00:05:14.448Z,3.30
2022-09-28T00:07:42.671Z,3.07
2022-09-28T00:10:11.024Z,3.60
2022-09-28T00:12:39.458Z,3.33
2022-09-28T00:15:08.087Z,2.70
2022-09-28T00:17:36.486Z,3.20
2022-09-28T00:20:05.824Z,2.83
2022-09-28T00:22:34.944Z,3.03
2022-09-28T00:25:02.704Z,2.83
2022-09-28T00:27:30.390Z,3.13
2022-09-28T00:29:58.122Z,2.97
2022-09-28T00:32:26.625Z,2.90
2022-09-28T00:34:55.092Z,3.30
2022-09-28T00:37:22.762Z,3.00
2022-09-28T00:39:51.877Z,3.20
2022-09-28T00:42:21.348Z,3.60
2022-09-28T00:44:49.752Z,3.70
2022-09-28T00:47:38.275Z,3.57
2022-09-28T00:50:08.199Z,3.83
2022-09-28T00:52:39.021Z,3.43
2022-09-28T00:55:09.879Z,4.07
2022-09-28T00:57:37.670Z,3.90
2022-09-28T01:00:06.627Z,3.67
2022-09-28T01:02:34.397Z,4.20
2022-09-28T01:05:02.282Z,3.87
2022-09-28T01:07:30.218Z,4.03
2022-09-28T01:09:58.088Z,4.23
2022-09-28T01:12:27.319Z,4.20
2022-09-28T01:14:55.255Z,4.37
2022-09-28T01:17:25.376Z,3.80
2022-09-28T01:20:26.779Z,3.47
2022-09-28T01:23:19.118Z,4.50
2022-09-28T01:25:51.866Z,3.57
2022-09-28T01:28:21.992Z,3.83
2022-09-28T01:30:55.135Z,4.10
2022-09-28T01:33:24.279Z,3.93
2022-09-28T01:35:53.907Z,4.07
2022-09-28T01:38:23.259Z,4.13
2022-09-28T01:40:51.079Z,3.57
2022-09-28T01:43:20.339Z,4.00
2022-09-28T01:45:50.510Z,3.90
2022-09-28T01:48:20.500Z,4.17
2022-09-28T01:50:48.567Z,4.33
2022-09-28T01:53:18.217Z,4.20
2022-09-28T01:55:46.703Z,4.30
2022-09-28T01:58:16.229Z,4.33
2022-09-28T02:00:45.854Z,3.90
2022-09-28T02:03:16.917Z,4.70
2022-09-28T02:05:46.831Z,4.87
2022-09-28T02:08:15.681Z,4.77
2022-09-28T02:10:44.925Z,4.27
2022-09-28T02:13:14.025Z,4.80
2022-09-28T02:15:43.791Z,4.70
2022-09-28T02:18:11.690Z,4.87
2022-09-28T02:20:41.107Z,5.20
2022-09-28T02:23:09.004Z,5.57
2022-09-28T02:25:40.171Z,5.50
2022-09-28T02:28:08.882Z,6.13
2022-09-28T02:30:37.883Z,5.80
2022-09-28T02:33:08.912Z,5.57
2022-09-28T02:35:36.938Z,6.20
2022-09-28T02:38:06.086Z,6.97
2022-09-28T02:40:35.648Z,6.33
2022-09-28T02:43:07.773Z,5.93
2022-09-28T02:45:42.599Z,6.70
2022-09-28T02:48:27.194Z,6.63
2022-09-28T02:51:07.174Z,7.37
2022-09-28T02:53:46.045Z,7.33
2022-09-28T02:56:27.307Z,7.73
2022-09-28T02:58:58.275Z,8.43
2022-09-28T03:01:29.564Z,9.27
2022-09-28T03:03:59.207Z,8.43
2022-09-28T03:06:28.485Z,8.40
2022-09-28T03:09:00.402Z,9.10
2022-09-28T03:11:29.972Z,8.70
2022-09-28T03:13:57.951Z,9.53
2022-09-28T03:16:27.453Z,8.80
2022-09-28T03:18:55.314Z,9.17
2022-09-28T03:21:23.096Z,9.07
2022-09-28T03:23:50.816Z,9.80
2022-09-28T03:26:20.158Z,10.23
2022-09-28T03:28:48.017Z,9.67
2022-09-28T03:31:15.890Z,9.60
2022-09-28T03:33:46.933Z,10.67
2022-09-28T03:36:15.159Z,10.07
2022-09-28T03:38:43.010Z,10.07
2022-09-28T03:41:10.966Z,10.37
2022-09-28T03:43:40.230Z,9.83
2022-09-28T03:46:10.289Z,11.07
2022-09-28T03:48:38.505Z,10.97
2022-09-28T03:51:09.291Z,10.27
2022-09-28T03:53:43.359Z,11.87
2022-09-28T03:56:13.369Z,11.30
2022-09-28T03:58:44.622Z,11.70
2022-09-28T04:01:17.828Z,11.67
2022-09-28T04:03:56.028Z,11.60
2022-09-28T04:06:24.999Z,11.70
2022-09-28T04:08:54.114Z,11.87
2022-09-28T04:11:21.922Z,11.40
2022-09-28T04:13:51.359Z,11.87
2022-09-28T04:16:25.346Z,12.03
2022-09-28T04:18:54.275Z,12.07
2022-09-28T04:21:22.480Z,12.80
2022-09-28T04:23:50.285Z,11.83
2022-09-28T04:26:20.546Z,12.10
2022-09-28T04:29:11.051Z,11.83
2022-09-28T04:31:40.613Z,11.57
2022-09-28T04:34:08.507Z,12.63
2022-09-28T04:36:36.508Z,12.43
2022-09-28T04:39:05.043Z,13.20
2022-09-28T04:41:41.741Z,12.70
2022-09-28T04:46:45.988Z,12.70
2022-09-28T04:49:13.795Z,13.17
2022-09-28T04:51:41.471Z,12.33
2022-09-28T04:54:09.196Z,14.10
2022-09-28T04:56:36.927Z,14.20
2022-09-28T04:59:06.134Z,14.03
2022-09-28T05:01:34.004Z,13.20
2022-09-28T05:04:03.547Z,14.23
2022-09-28T05:06:32.220Z,13.77
2022-09-28T05:08:59.885Z,13.67
2022-09-28T05:11:27.656Z,13.73
2022-09-28T05:13:55.530Z,14.40
2022-09-28T05:16:25.288Z,14.03
2022-09-28T05:18:56.260Z,13.60
2022-09-28T05:21:26.441Z,13.60
2022-09-28T05:23:56.147Z,14.37
2022-09-28T05:26:23.977Z,14.50
2022-09-28T05:28:51.808Z,14.37
2022-09-28T05:31:20.721Z,14.60
2022-09-28T05:33:48.735Z,14.40
2022-09-28T05:36:16.298Z,14.80
2022-09-28T05:38:45.349Z,15.10
2022-09-28T05:41:13.079Z,15.73
2022-09-28T05:43:41.049Z,15.90
2022-09-28T05:46:08.981Z,15.63
2022-09-28T05:48:36.797Z,15.80
2022-09-28T05:51:04.647Z,15.70
2022-09-28T05:53:32.211Z,15.87
2022-09-28T05:56:01.724Z,16.17
2022-09-28T05:58:29.475Z,16.10
2022-09-28T06:00:57.601Z,16.47
2022-09-28T06:03:25.555Z,16.30
2022-09-28T06:05:53.271Z,16.07
2022-09-28T06:08:21.149Z,16.50
2022-09-28T06:10:48.949Z,17.40
2022-09-28T06:13:17.860Z,17.13
2022-09-28T06:15:46.205Z,15.90
2022-09-28T06:18:15.141Z,16.77
2022-09-28T06:20:43.978Z,16.73
2022-09-28T06:23:11.797Z,17.93
2022-09-28T06:25:39.465Z,16.27
2022-09-28T06:28:10.353Z,17.73
2022-09-28T06:30:39.801Z,17.23
2022-09-28T06:33:08.242Z,17.40
2022-09-28T06:35:36.529Z,18.50
2022-09-28T06:38:08.108Z,16.30
2022-09-28T06:40:39.437Z,16.50
2022-09-28T06:43:10.260Z,16.97
2022-09-28T06:45:39.735Z,18.80
2022-09-28T06:48:07.901Z,16.60
2022-09-28T06:50:37.441Z,15.43
2022-09-28T06:53:05.875Z,16.20
2022-09-28T06:55:33.777Z,16.03
2022-09-28T06:58:02.707Z,15.93
2022-09-28T07:00:31.123Z,16.07
2022-09-28T07:03:01.374Z,14.67
2022-09-28T07:05:29.612Z,15.50
2022-09-28T07:07:57.307Z,13.00
2022-09-28T07:10:25.235Z,12.63
2022-09-28T07:12:52.927Z,12.20
2022-09-28T07:15:20.590Z,11.70
2022-09-28T07:17:59.875Z,12.30
2022-09-28T07:20:31.425Z,11.60
2022-09-28T07:23:15.633Z,11.80
2022-09-28T07:25:49.543Z,9.57
2022-09-28T07:28:17.511Z,10.73
2022-09-28T07:30:45.411Z,10.40
2022-09-28T07:33:14.606Z,10.57
2022-09-28T07:35:50.727Z,10.63
2022-09-28T07:38:18.426Z,10.70
2022-09-28T07:41:07.858Z,10.63
2022-09-28T07:43:35.992Z,10.77
2022-09-28T07:46:09.262Z,9.87
2022-09-28T07:48:38.078Z,8.83
2022-09-28T07:51:08.016Z,8.63
2022-09-28T07:53:36.086Z,9.30
2022-09-28T07:56:08.573Z,10.10
2022-09-28T07:58:36.695Z,9.23
2022-09-28T08:01:05.921Z,8.53
2022-09-28T08:03:33.751Z,9.13
2022-09-28T08:06:01.988Z,8.73
2022-09-28T08:08:31.587Z,10.53
2022-09-28T08:10:59.375Z,10.73
2022-09-28T08:13:27.412Z,11.00
2022-09-28T08:15:55.574Z,11.77
2022-09-28T08:18:23.842Z,12.43
2022-09-28T08:21:10.676Z,13.03
2022-09-28T08:23:39.988Z,11.97
2022-09-28T08:26:12.086Z,12.20
2022-09-28T08:28:43.115Z,10.53
2022-09-28T08:31:12.025Z,11.73
2022-09-28T08:33:41.196Z,11.97
2022-09-28T08:36:10.646Z,12.83
2022-09-28T08:38:39.613Z,12.43
2022-09-28T08:41:12.912Z,13.93
2022-09-28T08:43:53.039Z,15.30
2022-09-28T08:46:25.031Z,16.30
2022-09-28T08:49:20.741Z,19.07
2022-09-28T08:51:46.052Z,14.77
2022-09-28T08:54:30.059Z,15.67
2022-09-28T08:57:00.213Z,15.03
2022-09-28T08:59:38.227Z,14.03
2022-09-28T09:02:06.007Z,13.13
2022-09-28T09:04:33.866Z,12.70
2022-09-28T09:07:13.551Z,12.90
2022-09-28T09:09:49.169Z,11.07
2022-09-28T09:12:20.483Z,11.17
2022-09-28T09:15:13.024Z,10.13
2022-09-28T09:17:45.605Z,8.80
2022-09-28T09:20:26.251Z,7.67
2022-09-28T09:22:59.740Z,7.87
2022-09-28T09:25:43.405Z,7.60
2022-09-28T09:28:53.108Z,7.30
2022-09-28T09:31:29.916Z,7.70
2022-09-28T09:34:20.069Z,7.57
2022-09-28T09:36:55.923Z,5.80
2022-09-28T09:39:30.888Z,6.10
2022-09-28T09:42:06.226Z,6.50
2022-09-28T09:44:48.702Z,5.90
2022-09-28T09:47:18.293Z,6.40
2022-09-28T09:49:47.119Z,5.93
2022-09-28T09:52:19.133Z,6.37
2022-09-28T09:54:48.769Z,6.00
2022-09-28T09:57:20.184Z,6.67
2022-09-28T09:59:48.458Z,6.30
2022-09-28T10:02:24.172Z,7.30
2022-09-28T10:04:53.190Z,8.57
2022-09-28T10:07:23.673Z,7.70
2022-09-28T10:09:51.793Z,7.93
2022-09-28T10:12:21.647Z,7.90
2022-09-28T10:14:49.544Z,7.37
2022-09-28T10:17:18.340Z,8.80
2022-09-28T10:19:45.928Z,8.43
2022-09-28T10:22:16.097Z,9.27
2022-09-28T10:24:46.203Z,8.80
2022-09-28T10:27:15.119Z,9.10
2022-09-28T10:29:50.641Z,8.87
2022-09-28T10:32:23.770Z,8.70
2022-09-28T10:34:52.120Z,9.17
2022-09-28T10:37:19.860Z,8.13
2022-09-28T10:39:49.752Z,8.53
2022-09-28T10:42:20.417Z,8.03
2022-09-28T10:47:25.396Z,8.60
2022-09-28T10:49:53.421Z,7.57
2022-09-28T10:52:46.204Z,8.87
2022-09-28T10:55:30.622Z,7.50
2022-09-28T10:57:58.212Z,6.70
2022-09-28T11:00:38.167Z,6.50
2022-09-28T11:03:07.155Z,6.33
2022-09-28T11:05:35.884Z,5.80
2022-09-28T11:08:05.905Z,6.40
2022-09-28T11:10:33.649Z,6.73
2022-09-28T11:13:02.238Z,5.27
2022-09-28T11:15:30.906Z,6.20
2022-09-28T11:17:58.580Z,5.40
2022-09-28T11:20:35.810Z,5.87
2022-09-28T11:23:18.526Z,5.10
2022-09-28T11:25:51.410Z,5.87
2022-09-28T11:28:23.733Z,4.90
2022-09-28T11:30:52.386Z,5.13
2022-09-28T11:33:20.846Z,5.37
2022-09-28T11:35:51.483Z,4.77
2022-09-28T11:38:26.355Z,4.93
2022-09-28T11:41:00.767Z,5.13
2022-09-28T11:43:40.822Z,4.53
2022-09-28T11:46:10.451Z,5.00
2022-09-28T11:48:41.579Z,4.03
2022-09-28T11:51:13.122Z,3.87
2022-09-28T11:53:41.295Z,3.60
2022-09-28T11:56:13.518Z,4.00
2022-09-28T11:58:41.889Z,3.83
2022-09-28T12:01:18.581Z,4.63
2022-09-28T12:03:49.081Z,4.03
2022-09-28T12:06:19.699Z,4.57
2022-09-28T12:08:48.390Z,5.17
2022-09-28T12:11:18.141Z,3.70
2022-09-28T12:13:47.819Z,3.30
2022-09-28T12:16:45.286Z,3.57
2022-09-28T12:19:19.796Z,4.33
2022-09-28T12:21:51.213Z,3.60
2022-09-28T12:24:21.024Z,2.60
2022-09-28T12:26:51.076Z,3.53
2022-09-28T12:29:21.702Z,2.90
2022-09-28T12:31:54.987Z,3.17
2022-09-28T12:34:22.902Z,3.13
2022-09-28T12:36:59.992Z,3.20
2022-09-28T12:39:57.093Z,3.50
2022-09-28T12:42:44.213Z,2.97
2022-09-28T12:45:59.738Z,2.90
2022-09-28T12:48:36.143Z,2.97
2022-09-28T12:51:09.165Z,3.07
2022-09-28T12:54:00.125Z,3.43
2022-09-28T12:56:30.755Z,4.23
2022-09-28T12:59:05.192Z,3.10
2022-09-28T13:01:40.685Z,3.50
2022-09-28T13:04:19.080Z,2.90
2022-09-28T13:06:54.506Z,3.10
2022-09-28T13:09:24.165Z,3.00
2022-09-28T13:11:56.804Z,3.17
2022-09-28T13:14:51.303Z,3.20
2022-09-28T13:17:21.305Z,2.90
2022-09-28T13:19:51.816Z,3.77
2022-09-28T13:22:27.982Z,4.50
2022-09-28T13:24:57.701Z,4.50
2022-09-28T13:27:29.522Z,4.90
2022-09-28T13:29:58.799Z,4.60
2022-09-28T13:32:29.874Z,3.53
2022-09-28T13:34:57.541Z,3.47
2022-09-28T13:37:25.984Z,3.43
2022-09-28T13:39:55.089Z,3.07
2022-09-28T13:42:51.858Z,2.43
2022-09-28T13:45:51.650Z,2.80
2022-09-28T13:48:20.542Z,3.33
2022-09-28T13:51:10.853Z,2.80
2022-09-28T13:53:48.423Z,2.90
2022-09-28T13:56:24.526Z,2.33
2022-09-28T13:58:54.712Z,2.77
2022-09-28T14:01:32.618Z,3.43
2022-09-28T14:04:12.575Z,3.67
2022-09-28T14:06:49.437Z,3.90
2022-09-28T14:09:28.086Z,4.00
2022-09-28T14:11:58.769Z,3.83
2022-09-28T14:14:46.503Z,3.80
2022-09-28T14:17:50.056Z,3.77
2022-09-28T14:20:18.805Z,4.00
2022-09-28T14:22:55.173Z,3.90
2022-09-28T14:25:24.321Z,3.40
2022-09-28T14:28:13.819Z,3.80
2022-09-28T14:30:50.570Z,3.63
2022-09-28T14:33:24.549Z,3.00
2022-09-28T14:35:56.289Z,3.20
2022-09-28T14:38:43.480Z,3.20
2022-09-28T14:41:17.423Z,3.30
2022-09-28T14:44:02.615Z,5.70
2022-09-28T14:46:33.487Z,3.30
2022-09-28T14:49:03.445Z,3.70
2022-09-28T14:52:03.141Z,3.97
2022-09-28T14:54:39.205Z,4.27
2022-09-28T14:57:09.258Z,4.13
2022-09-28T14:59:42.777Z,4.20
2022-09-28T15:02:17.297Z,4.00
2022-09-28T15:04:46.656Z,5.10
2022-09-28T15:07:20.110Z,5.40
2022-09-28T15:09:49.609Z,4.13
2022-09-28T15:12:17.996Z,4.03
2022-09-28T15:14:48.610Z,2.77
2022-09-28T15:17:21.721Z,2.87
2022-09-28T15:19:58.257Z,2.80
2022-09-28T15:22:26.103Z,3.33
2022-09-28T15:25:00.007Z,3.60
2022-09-28T15:27:35.905Z,2.77
2022-09-28T15:30:18.217Z,3.20
2022-09-28T15:32:47.397Z,3.60
2022-09-28T15:35:20.422Z,1.67
2022-09-28T15:37:50.123Z,2.17
2022-09-28T15:40:26.635Z,2.10
2022-09-28T15:42:59.085Z,1.53
2022-09-28T15:45:28.646Z,2.60
2022-09-28T15:48:14.683Z,1.60
2022-09-28T15:50:45.738Z,2.30
2022-09-28T15:53:17.310Z,1.70
2022-09-28T15:55:45.038Z,2.47
2022-09-28T15:58:17.104Z,2.50
2022-09-28T16:00:45.076Z,2.63
2022-09-28T16:03:24.684Z,1.80
2022-09-28T16:05:53.150Z,1.70
2022-09-28T16:08:25.518Z,1.60
2022-09-28T16:10:55.825Z,1.53
2022-09-28T16:13:24.307Z,1.53
2022-09-28T16:15:57.972Z,1.63
2022-09-28T16:18:27.609Z,1.60
2022-09-28T16:20:58.219Z,1.90
2022-09-28T16:23:27.322Z,3.30
2022-09-28T16:25:57.172Z,2.40
2022-09-28T16:28:48.714Z,2.77
2022-09-28T16:31:33.590Z,5.10
2022-09-28T16:34:11.748Z,4.90
2022-09-28T16:36:45.441Z,7.47
2022-09-28T16:39:13.706Z,5.97
2022-09-28T16:41:41.600Z,5.97
2022-09-28T16:44:14.981Z,5.30
2022-09-28T16:46:42.782Z,5.80
2022-09-28T16:49:18.696Z,4.67
2022-09-28T16:51:47.333Z,3.97
2022-09-28T16:54:33.336Z,3.83
2022-09-28T16:57:01.881Z,3.10
2022-09-28T16:59:30.124Z,2.60
2022-09-28T17:01:58.473Z,2.50
2022-09-28T17:04:27.711Z,2.40
2022-09-28T17:06:55.837Z,2.30
2022-09-28T17:09:23.492Z,2.43
2022-09-28T17:11:56.128Z,2.47
2022-09-28T17:14:24.581Z,2.20
2022-09-28T17:17:12.533Z,2.80
2022-09-28T17:19:43.084Z,3.43
2022-09-28T17:22:11.082Z,3.00
2022-09-28T17:27:07.816Z,3.50
2022-09-28T17:29:35.677Z,3.47
2022-09-28T17:32:05.039Z,4.03
2022-09-28T17:34:32.860Z,3.70
2022-09-28T17:37:06.160Z,3.57
2022-09-28T17:39:35.024Z,3.23
2022-09-28T17:42:03.062Z,3.90
2022-09-28T17:44:30.947Z,3.70
2022-09-28T17:46:59.305Z,4.10
2022-09-28T17:49:27.239Z,3.53
2022-09-28T17:51:55.497Z,3.97
2022-09-28T17:54:29.044Z,4.03
2022-09-28T17:56:57.046Z,4.00
2022-09-28T17:59:26.733Z,4.47
2022-09-28T18:01:58.405Z,4.00
2022-09-28T18:04:50.869Z,4.60
2022-09-28T18:07:16.549Z,3.27
2022-09-28T18:09:45.936Z,2.90
2022-09-28T18:12:13.955Z,3.23
2022-09-28T18:14:42.224Z,3.20
2022-09-28T18:17:10.681Z,3.73
2022-09-28T18:19:38.599Z,3.03
2022-09-28T18:22:06.480Z,2.80
2022-09-28T18:24:34.297Z,3.80
2022-09-28T18:27:03.641Z,3.57
2022-09-28T18:29:33.460Z,3.57
2022-09-28T18:32:01.694Z,3.67
2022-09-28T18:34:29.522Z,4.20
2022-09-28T18:36:57.604Z,4.30
2022-09-28T18:39:26.550Z,4.27
2022-09-28T18:41:55.759Z,5.20
2022-09-28T18:44:25.247Z,4.70
2022-09-28T18:46:53.627Z,5.60
2022-09-28T18:49:21.563Z,4.50
2022-09-28T18:51:49.418Z,5.03
2022-09-28T18:54:17.392Z,4.90
2022-09-28T18:56:47.910Z,5.27
2022-09-28T18:59:18.053Z,5.50
2022-09-28T19:01:48.696Z,5.37
2022-09-28T19:04:24.010Z,4.87
2022-09-28T19:06:54.530Z,4.60
2022-09-28T19:09:24.837Z,4.60
2022-09-28T19:12:31.961Z,5.40
2022-09-28T19:21:29.018Z,6.07
2022-09-28T19:24:04.186Z,6.47
2022-09-28T19:29:17.765Z,7.03
2022-09-28T19:31:46.016Z,8.43
2022-09-28T19:34:15.419Z,8.20
2022-09-28T19:36:43.519Z,7.93
2022-09-28T19:39:14.151Z,6.87
2022-09-28T19:41:44.403Z,7.40
2022-09-28T19:44:15.747Z,8.10
2022-09-28T19:46:43.811Z,9.17
2022-09-28T19:49:12.506Z,7.70
2022-09-28T19:52:01.569Z,7.90
2022-09-28T19:54:36.323Z,8.07
2022-09-28T19:57:07.457Z,9.07
2022-09-28T19:59:38.948Z,8.30
2022-09-28T20:02:06.857Z,8.03
2022-09-28T20:04:34.637Z,7.97
2022-09-28T20:07:03.654Z,8.77
2022-09-28T20:09:31.579Z,6.67
2022-09-28T20:11:59.231Z,6.87
2022-09-28T20:14:32.890Z,6.93
2022-09-28T20:17:02.795Z,7.10
2022-09-28T20:19:30.680Z,7.67
2022-09-28T20:21:59.492Z,7.33
2022-09-28T20:24:29.301Z,8.00
2022-09-28T20:26:57.838Z,8.70
2022-09-28T20:29:26.652Z,8.20
2022-09-28T20:31:54.894Z,8.97
2022-09-28T20:34:26.390Z,8.37
2022-09-28T20:36:54.136Z,7.77
2022-09-28T20:39:21.935Z,8.20
2022-09-28T20:41:57.755Z,8.33
2022-09-28T20:44:25.523Z,8.63
2022-09-28T20:46:53.432Z,9.03
2022-09-28T20:49:21.649Z,8.87
2022-09-28T20:51:51.123Z,8.20
2022-09-28T20:54:18.954Z,9.13
2022-09-28T20:56:48.170Z,8.70
2022-09-28T20:59:17.259Z,9.23
2022-09-28T21:01:44.967Z,9.97
2022-09-28T21:04:12.786Z,9.13
2022-09-28T21:06:44.002Z,9.30
2022-09-28T21:09:12.099Z,8.87
2022-09-28T21:11:40.202Z,9.23
2022-09-28T21:14:08.595Z,8.90
2022-09-28T21:16:37.768Z,9.20
2022-09-28T21:19:05.606Z,9.20
2022-09-28T21:21:35.335Z,10.00
2022-09-28T21:24:03.141Z,9.83
2022-09-28T21:26:31.137Z,10.93
2022-09-28T21:28:59.327Z,9.97
2022-09-28T21:31:29.386Z,10.00
2022-09-28T21:33:58.626Z,9.60
2022-09-28T21:36:26.299Z,9.93
2022-09-28T21:38:54.998Z,10.90
2022-09-28T21:41:22.624Z,10.83
2022-09-28T21:43:50.208Z,11.40
2022-09-28T21:46:20.114Z,10.50
2022-09-28T21:48:51.356Z,11.63
2022-09-28T21:51:20.398Z,10.60
2022-09-28T21:53:49.058Z,11.13
2022-09-28T21:56:16.780Z,11.37
2022-09-28T21:58:44.373Z,11.83
2022-09-28T22:01:14.482Z,12.60
2022-09-28T22:03:43.906Z,11.97
2022-09-28T22:06:11.979Z,12.60
2022-09-28T22:08:41.059Z,12.53
2022-09-28T22:11:09.779Z,12.77
2022-09-28T22:13:39.901Z,13.20
2022-09-28T22:16:08.209Z,17.37
2022-09-28T22:18:35.878Z,13.30
2022-09-28T22:21:04.234Z,13.30
2022-09-28T22:23:31.868Z,13.23
2022-09-28T22:26:01.534Z,12.07
2022-09-28T22:28:30.119Z,13.17
2022-09-28T22:30:58.129Z,13.60
2022-09-28T22:33:25.969Z,13.20
2022-09-28T22:35:53.578Z,12.43
2022-09-28T22:38:21.480Z,13.13
2022-09-28T22:40:49.972Z,12.97
2022-09-28T22:43:19.807Z,13.50
2022-09-28T22:45:47.597Z,12.60
2022-09-28T22:48:15.296Z,12.20
2022-09-28T22:50:49.673Z,13.53
2022-09-28T22:53:17.289Z,12.53
2022-09-28T22:55:45.091Z,13.40
2022-09-28T22:58:15.653Z,12.60
2022-09-28T23:00:45.637Z,13.30
2022-09-28T23:03:13.449Z,12.80
2022-09-28T23:05:41.186Z,12.67
2022-09-28T23:08:08.754Z,13.87
2022-09-28T23:10:36.388Z,13.80
2022-09-28T23:13:04.001Z,14.03
2022-09-28T23:15:32.405Z,13.77
2022-09-28T23:18:01.334Z,13.53
2022-09-28T23:20:29.018Z,13.77
2022-09-28T23:22:56.564Z,13.67
2022-09-28T23:27:51.939Z,13.53
2022-09-28T23:30:21.531Z,13.27
2022-09-28T23:32:49.622Z,13.90
2022-09-28T23:35:18.683Z,14.50
2022-09-28T23:37:50.544Z,14.17
2022-09-28T23:40:18.343Z,13.03
2022-09-28T23:42:46.095Z,12.87
2022-09-28T23:45:13.845Z,13.77
2022-09-28T23:47:41.474Z,12.53
2022-09-28T23:50:10.025Z,13.33
2022-09-28T23:52:39.017Z,13.83
2022-09-28T23:55:07.530Z,14.00
2022-09-28T23:57:35.208Z,13.40
